Time;durP1;ratioP1;P1;durP2;ratioP2;P2;SDS_P1;SDS_P2;PMS_P1;PMS_P2;Temp;Humidity;BMP_temperature;BMP_pressure;BME280_temperature;BME280_humidity;BME280_pressure;Samples;Min_cycle;Max_cycle;Signal;HPM_P1;HPM_P2
2023/04/10 00:00:40;;;;;;;11.97;6.50;;;;;;;;;;5027558;28;20010;-69
2023/04/10 00:03:05;;;;;;;16.17;7.85;;;;;;;;;;5032021;28;20314;-69
2023/04/10 00:05:31;;;;;;;17.13;7.37;;;;;;;;;;5028559;28;20026;-69
2023/04/10 00:07:56;;;;;;;16.25;8.10;;;;;;;;;;5030691;28;20299;-69
2023/04/10 00:10:21;;;;;;;20.00;8.07;;;;;;;;;;5031799;28;20027;-69
2023/04/10 00:12:47;;;;;;;17.67;7.32;;;;;;;;;;5029501;28;20301;-69
2023/04/10 00:15:12;;;;;;;14.05;7.32;;;;;;;;;;5027359;28;20105;-69
2023/04/10 00:17:37;;;;;;;16.25;7.15;;;;;;;;;;5033968;28;20690;-69
2023/04/10 00:20:03;;;;;;;14.43;7.80;;;;;;;;;;5030836;28;20018;-69
2023/04/10 00:22:29;;;;;;;16.60;7.00;;;;;;;;;;5026893;28;20256;-69
2023/04/10 00:24:54;;;;;;;13.23;7.95;;;;;;;;;;5034085;28;20025;-69
2023/04/10 00:27:19;;;;;;;17.17;7.70;;;;;;;;;;5032919;28;20406;-69
2023/04/10 00:29:45;;;;;;;16.05;7.30;;;;;;;;;;5035906;28;20100;-69
2023/04/10 00:32:10;;;;;;;15.85;8.35;;;;;;;;;;5032644;28;20049;-69
2023/04/10 00:34:35;;;;;;;16.80;8.75;;;;;;;;;;5028465;28;20471;-69
2023/04/10 00:37:00;;;;;;;17.00;8.23;;;;;;;;;;5031995;28;20493;-69
2023/04/10 00:39:25;;;;;;;16.15;7.85;;;;;;;;;;5029396;28;20379;-69
2023/04/10 00:41:51;;;;;;;12.60;7.60;;;;;;;;;;5032471;28;20014;-71
2023/04/10 00:44:16;;;;;;;13.83;8.03;;;;;;;;;;5032962;28;20418;-69
2023/04/10 00:46:41;;;;;;;13.93;7.72;;;;;;;;;;5031557;28;20282;-69
2023/04/10 00:49:08;;;;;;;14.45;7.45;;;;;;;;;;5030976;28;20119;-69
2023/04/10 00:51:33;;;;;;;20.92;7.25;;;;;;;;;;5031321;28;20053;-69
2023/04/10 00:53:59;;;;;;;19.83;6.55;;;;;;;;;;5031527;28;20564;-69
2023/04/10 00:56:24;;;;;;;16.08;6.55;;;;;;;;;;5031492;28;20021;-69
2023/04/10 00:58:49;;;;;;;15.65;7.25;;;;;;;;;;5032339;28;20032;-69
2023/04/10 01:01:15;;;;;;;15.18;7.97;;;;;;;;;;5031099;28;20096;-68
2023/04/10 01:03:41;;;;;;;15.57;8.07;;;;;;;;;;5030615;28;20515;-69
2023/04/10 01:06:06;;;;;;;14.48;7.72;;;;;;;;;;5031036;28;20022;-69
2023/04/10 01:08:37;;;;;;;13.10;6.78;;;;;;;;;;5030787;28;20095;-69
2023/04/10 01:11:09;;;;;;;16.42;7.90;;;;;;;;;;5031261;28;20030;-69
2023/04/10 01:13:37;;;;;;;17.08;7.13;;;;;;;;;;5028899;28;20025;-71
2023/04/10 01:16:14;;;;;;;19.60;8.63;;;;;;;;;;5032864;28;20033;-71
2023/04/10 01:18:42;;;;;;;14.30;7.88;;;;;;;;;;5032823;28;20091;-71
2023/04/10 01:21:10;;;;;;;18.42;8.32;;;;;;;;;;5032135;28;20037;-69
2023/04/10 01:23:46;;;;;;;14.13;6.85;;;;;;;;;;5030536;28;20112;-71
2023/04/10 01:26:12;;;;;;;15.75;7.78;;;;;;;;;;5031905;28;20431;-71
2023/04/10 01:28:38;;;;;;;14.52;7.90;;;;;;;;;;5030096;28;20028;-70
2023/04/10 01:31:05;;;;;;;12.20;7.05;;;;;;;;;;5031155;28;20021;-70
2023/04/10 01:33:46;;;;;;;15.45;7.55;;;;;;;;;;5031198;28;20112;-71
2023/04/10 01:36:15;;;;;;;14.70;7.60;;;;;;;;;;5031819;28;20035;-71
2023/04/10 01:38:43;;;;;;;18.17;8.15;;;;;;;;;;5029402;28;20083;-71
2023/04/10 01:41:08;;;;;;;18.20;8.75;;;;;;;;;;5029854;28;20052;-71
2023/04/10 01:43:34;;;;;;;14.55;8.18;;;;;;;;;;5030285;28;20045;-71
2023/04/10 01:46:01;;;;;;;14.27;7.50;;;;;;;;;;5032149;28;20037;-71
2023/04/10 01:48:27;;;;;;;18.88;7.97;;;;;;;;;;5031471;28;20047;-71
2023/04/10 01:50:53;;;;;;;15.82;7.72;;;;;;;;;;5031985;28;20104;-71
2023/04/10 01:53:18;;;;;;;12.90;7.00;;;;;;;;;;5030125;28;20033;-71
2023/04/10 01:55:43;;;;;;;17.55;7.97;;;;;;;;;;5033914;28;20024;-71
2023/04/10 01:58:09;;;;;;;13.27;7.35;;;;;;;;;;5030137;28;20053;-71
2023/04/10 02:00:41;;;;;;;14.80;8.05;;;;;;;;;;5029009;28;20048;-71
2023/04/10 02:03:07;;;;;;;16.02;7.43;;;;;;;;;;5028635;28;20021;-71
2023/04/10 02:05:40;;;;;;;14.82;7.68;;;;;;;;;;5030960;28;20026;-71
2023/04/10 02:08:11;;;;;;;16.80;7.95;;;;;;;;;;5032441;28;20434;-71
2023/04/10 02:10:36;;;;;;;14.77;7.20;;;;;;;;;;5030985;28;20074;-71
2023/04/10 02:13:09;;;;;;;14.18;7.90;;;;;;;;;;5033045;28;20104;-71
2023/04/10 02:15:35;;;;;;;15.77;7.90;;;;;;;;;;5028265;28;20063;-71
2023/04/10 02:18:03;;;;;;;14.32;7.47;;;;;;;;;;5030700;28;20079;-71
2023/04/10 02:20:29;;;;;;;14.68;7.47;;;;;;;;;;5032156;28;20026;-71
2023/04/10 02:22:55;;;;;;;20.42;7.50;;;;;;;;;;5032215;28;20051;-71
2023/04/10 02:25:20;;;;;;;14.75;7.20;;;;;;;;;;5029724;28;20397;-71
2023/04/10 02:27:45;;;;;;;16.10;7.20;;;;;;;;;;5030493;28;20017;-71
2023/04/10 02:30:11;;;;;;;16.43;7.93;;;;;;;;;;5028775;28;20017;-71
2023/04/10 02:32:36;;;;;;;15.40;7.05;;;;;;;;;;5031386;28;20300;-70
2023/04/10 02:35:01;;;;;;;14.15;7.38;;;;;;;;;;5030025;28;20018;-70
2023/04/10 02:37:27;;;;;;;14.27;7.32;;;;;;;;;;5027779;28;20020;-70
2023/04/10 02:39:55;;;;;;;14.95;7.03;;;;;;;;;;5029547;28;20056;-73
2023/04/10 02:42:21;;;;;;;13.63;6.80;;;;;;;;;;5031047;28;20049;-73
2023/04/10 02:44:46;;;;;;;18.13;6.95;;;;;;;;;;5029289;28;20049;-73
2023/04/10 02:47:11;;;;;;;14.43;6.93;;;;;;;;;;5029611;28;20709;-73
2023/04/10 02:49:36;;;;;;;10.82;6.22;;;;;;;;;;5030325;28;20086;-73
2023/04/10 02:52:02;;;;;;;13.40;6.60;;;;;;;;;;5028368;28;20471;-73
2023/04/10 02:54:27;;;;;;;11.23;6.25;;;;;;;;;;5029207;28;20029;-73
2023/04/10 02:56:52;;;;;;;13.18;6.63;;;;;;;;;;5030849;28;20040;-73
2023/04/10 02:59:18;;;;;;;13.50;6.65;;;;;;;;;;5026463;28;20018;-73
2023/04/10 03:01:44;;;;;;;13.48;7.03;;;;;;;;;;5028025;28;20021;-73
2023/04/10 03:04:09;;;;;;;12.38;6.35;;;;;;;;;;5032366;28;20075;-73
2023/04/10 03:06:35;;;;;;;13.00;6.70;;;;;;;;;;5030345;28;20025;-73
2023/04/10 03:09:00;;;;;;;11.43;6.45;;;;;;;;;;5029183;28;20032;-73
2023/04/10 03:11:25;;;;;;;15.52;7.18;;;;;;;;;;5025465;28;20021;-73
2023/04/10 03:13:51;;;;;;;16.17;7.07;;;;;;;;;;5032503;28;20032;-73
2023/04/10 03:16:19;;;;;;;15.70;7.63;;;;;;;;;;5033218;28;20133;-73
2023/04/10 03:18:45;;;;;;;14.48;7.68;;;;;;;;;;5029461;28;20264;-73
2023/04/10 03:21:10;;;;;;;12.57;6.75;;;;;;;;;;5026357;28;20022;-73
2023/04/10 03:23:35;;;;;;;16.13;7.57;;;;;;;;;;5024762;28;20024;-73
2023/04/10 03:26:01;;;;;;;14.40;6.93;;;;;;;;;;5033514;28;20053;-73
2023/04/10 03:28:26;;;;;;;12.88;6.40;;;;;;;;;;5028594;28;20037;-73
2023/04/10 03:30:51;;;;;;;15.35;7.35;;;;;;;;;;5031475;28;20028;-73
2023/04/10 03:33:17;;;;;;;13.98;6.68;;;;;;;;;;5027865;28;20784;-73
2023/04/10 03:35:44;;;;;;;13.70;6.22;;;;;;;;;;5025147;28;20010;-73
2023/04/10 03:38:09;;;;;;;13.77;6.68;;;;;;;;;;5029997;28;20107;-73
2023/04/10 03:40:34;;;;;;;12.38;6.25;;;;;;;;;;5027366;28;20466;-73
2023/04/10 03:43:00;;;;;;;11.80;6.20;;;;;;;;;;5035789;28;20021;-73
2023/04/10 03:45:25;;;;;;;12.50;6.40;;;;;;;;;;5032250;28;20432;-73
2023/04/10 03:47:51;;;;;;;12.23;6.05;;;;;;;;;;5025944;28;20283;-73
2023/04/10 03:50:16;;;;;;;15.10;7.28;;;;;;;;;;5026801;28;20025;-74
2023/04/10 03:52:41;;;;;;;12.13;6.15;;;;;;;;;;5027523;28;20021;-73
2023/04/10 03:55:06;;;;;;;11.50;5.97;;;;;;;;;;5034034;28;20033;-73
2023/04/10 03:57:32;;;;;;;14.25;5.95;;;;;;;;;;5028665;28;20017;-73
2023/04/10 03:59:57;;;;;;;13.45;6.90;;;;;;;;;;5033536;28;20014;-73
2023/04/10 04:02:22;;;;;;;12.88;6.38;;;;;;;;;;5033466;28;20021;-73
2023/04/10 04:04:47;;;;;;;15.35;7.20;;;;;;;;;;5029507;28;20036;-73
2023/04/10 04:07:12;;;;;;;18.52;7.13;;;;;;;;;;5031907;28;20025;-73
2023/04/10 04:09:38;;;;;;;13.70;5.93;;;;;;;;;;5032483;28;20025;-72
2023/04/10 04:12:03;;;;;;;11.00;5.75;;;;;;;;;;5033289;28;20033;-74
2023/04/10 04:14:28;;;;;;;11.07;4.23;;;;;;;;;;5033341;28;20044;-73
2023/04/10 04:16:54;;;;;;;14.00;6.53;;;;;;;;;;5031620;28;20973;-73
2023/04/10 04:19:19;;;;;;;10.63;5.35;;;;;;;;;;5037495;28;20096;-72
2023/04/10 04:21:44;;;;;;;8.27;4.27;;;;;;;;;;5031610;28;20021;-73
2023/04/10 04:24:09;;;;;;;11.73;5.93;;;;;;;;;;5037759;28;20284;-72
2023/04/10 04:26:35;;;;;;;11.37;5.90;;;;;;;;;;5031372;28;20482;-72
2023/04/10 04:29:00;;;;;;;9.98;5.30;;;;;;;;;;5035090;28;20428;-72
2023/04/10 04:31:31;;;;;;;10.80;5.03;;;;;;;;;;5032782;28;20045;-73
2023/04/10 04:33:56;;;;;;;8.20;4.63;;;;;;;;;;5032464;28;20287;-72
2023/04/10 04:36:21;;;;;;;10.82;6.13;;;;;;;;;;5033019;28;20071;-73
2023/04/10 04:38:46;;;;;;;9.20;4.80;;;;;;;;;;5035664;28;20021;-73
2023/04/10 04:41:11;;;;;;;15.25;6.55;;;;;;;;;;5032770;28;20355;-73
2023/04/10 04:43:37;;;;;;;6.25;3.25;;;;;;;;;;5032968;28;20018;-73
2023/04/10 04:46:02;;;;;;;12.13;5.03;;;;;;;;;;5039118;28;20029;-72
2023/04/10 04:48:27;;;;;;;9.75;4.07;;;;;;;;;;5030423;28;20075;-72
2023/04/10 04:50:52;;;;;;;6.53;3.30;;;;;;;;;;5031449;28;20029;-72
2023/04/10 04:53:17;;;;;;;12.45;5.78;;;;;;;;;;5032864;28;20393;-72
2023/04/10 04:55:42;;;;;;;8.43;4.20;;;;;;;;;;5032688;28;20018;-72
2023/04/10 04:58:08;;;;;;;10.18;4.60;;;;;;;;;;5033180;28;20355;-73
2023/04/10 05:00:33;;;;;;;11.73;5.40;;;;;;;;;;5032280;28;20071;-72
2023/04/10 05:02:58;;;;;;;6.87;4.20;;;;;;;;;;5037836;28;20284;-73
2023/04/10 05:05:23;;;;;;;8.82;4.20;;;;;;;;;;5032372;28;20283;-73
2023/04/10 05:07:48;;;;;;;9.98;4.43;;;;;;;;;;5030220;28;20060;-72
2023/04/10 05:10:14;;;;;;;9.52;5.68;;;;;;;;;;5030032;28;20022;-73
2023/04/10 05:12:40;;;;;;;7.70;4.22;;;;;;;;;;5031097;28;20021;-72
2023/04/10 05:15:06;;;;;;;6.18;2.85;;;;;;;;;;5026690;28;20618;-72
2023/04/10 05:17:31;;;;;;;6.88;3.28;;;;;;;;;;5031126;28;20084;-72
2023/04/10 05:19:56;;;;;;;11.60;5.70;;;;;;;;;;5041494;28;20020;-73
2023/04/10 05:22:21;;;;;;;4.60;2.95;;;;;;;;;;5036872;28;20347;-73
2023/04/10 05:24:46;;;;;;;11.63;4.63;;;;;;;;;;5026646;28;20017;-73
2023/04/10 05:27:12;;;;;;;11.18;5.30;;;;;;;;;;5036216;28;20268;-73
2023/04/10 05:29:37;;;;;;;15.90;6.53;;;;;;;;;;5038275;28;20037;-73
2023/04/10 05:32:02;;;;;;;7.00;3.58;;;;;;;;;;5037852;28;20382;-73
2023/04/10 05:34:27;;;;;;;8.93;4.23;;;;;;;;;;5028345;28;20017;-73
2023/04/10 05:36:52;;;;;;;8.30;3.50;;;;;;;;;;5036065;28;20264;-74
2023/04/10 05:39:17;;;;;;;5.17;3.87;;;;;;;;;;5031730;28;20029;-74
2023/04/10 05:41:43;;;;;;;12.18;4.82;;;;;;;;;;5031014;28;20677;-73
2023/04/10 05:44:08;;;;;;;9.90;5.00;;;;;;;;;;5034157;28;20563;-73
2023/04/10 05:46:33;;;;;;;9.60;3.90;;;;;;;;;;5034174;28;20310;-73
2023/04/10 05:48:59;;;;;;;9.80;3.83;;;;;;;;;;5040662;28;20397;-73
2023/04/10 05:51:25;;;;;;;5.55;2.70;;;;;;;;;;5029146;28;20283;-73
2023/04/10 05:53:50;;;;;;;8.82;4.57;;;;;;;;;;5036136;28;20378;-73
2023/04/10 05:56:15;;;;;;;10.20;4.78;;;;;;;;;;5028325;28;20018;-73
2023/04/10 05:58:40;;;;;;;9.88;4.78;;;;;;;;;;5028835;28;20033;-73
2023/04/10 06:01:06;;;;;;;9.07;4.77;;;;;;;;;;5030814;28;20209;-73
2023/04/10 06:03:31;;;;;;;6.75;3.70;;;;;;;;;;5028189;28;20747;-73
2023/04/10 06:05:57;;;;;;;8.47;5.23;;;;;;;;;;5028704;28;20726;-72
2023/04/10 06:08:22;;;;;;;7.35;4.03;;;;;;;;;;5029109;28;20268;-73
2023/04/10 06:10:47;;;;;;;13.53;5.87;;;;;;;;;;5030962;28;20025;-72
2023/04/10 06:13:13;;;;;;;8.90;4.15;;;;;;;;;;5028068;28;20283;-73
2023/04/10 06:15:39;;;;;;;11.13;5.03;;;;;;;;;;5025267;28;20402;-73
2023/04/10 06:18:04;;;;;;;8.52;3.92;;;;;;;;;;5032326;28;20018;-73
2023/04/10 06:20:29;;;;;;;9.95;4.75;;;;;;;;;;5025439;28;20057;-73
2023/04/10 06:22:54;;;;;;;8.38;3.65;;;;;;;;;;5024823;28;20049;-72
2023/04/10 06:25:20;;;;;;;11.50;5.53;;;;;;;;;;5025913;28;20024;-73
2023/04/10 06:27:45;;;;;;;8.90;5.13;;;;;;;;;;5026160;28;21291;-73
2023/04/10 06:30:10;;;;;;;7.57;3.65;;;;;;;;;;5027572;28;20272;-72
2023/04/10 06:32:35;;;;;;;7.15;3.33;;;;;;;;;;5030390;28;20013;-73
2023/04/10 06:35:01;;;;;;;14.00;6.38;;;;;;;;;;5031013;28;20039;-72
2023/04/10 06:37:28;;;;;;;11.73;4.13;;;;;;;;;;5033619;28;20028;-73
2023/04/10 06:40:04;;;;;;;12.45;7.43;;;;;;;;;;5030101;28;20049;-73
2023/04/10 06:42:29;;;;;;;8.10;4.03;;;;;;;;;;5031948;28;20024;-73
2023/04/10 06:44:54;;;;;;;10.55;4.97;;;;;;;;;;5029596;28;20025;-73
2023/04/10 06:47:19;;;;;;;8.32;3.47;;;;;;;;;;5028544;28;20068;-73
2023/04/10 06:49:45;;;;;;;2.85;1.52;;;;;;;;;;5029548;28;20024;-73
2023/04/10 06:52:10;;;;;;;10.40;5.10;;;;;;;;;;5037115;28;20032;-73
2023/04/10 06:54:35;;;;;;;8.55;5.10;;;;;;;;;;5038538;28;20366;-73
2023/04/10 06:57:00;;;;;;;6.23;3.20;;;;;;;;;;5029516;28;20109;-73
2023/04/10 06:59:25;;;;;;;9.27;4.83;;;;;;;;;;5029834;28;20737;-73
2023/04/10 07:01:50;;;;;;;9.20;4.63;;;;;;;;;;5024502;28;20333;-73
2023/04/10 07:04:16;;;;;;;9.47;5.07;;;;;;;;;;5026436;28;20405;-73
2023/04/10 07:06:41;;;;;;;8.60;4.20;;;;;;;;;;5029151;28;20014;-73
2023/04/10 07:09:06;;;;;;;9.03;5.63;;;;;;;;;;5028432;28;20371;-74
2023/04/10 07:11:31;;;;;;;9.53;4.30;;;;;;;;;;5033987;28;20063;-73
2023/04/10 07:13:57;;;;;;;5.60;3.63;;;;;;;;;;5029320;28;20530;-73
2023/04/10 07:16:22;;;;;;;9.13;4.47;;;;;;;;;;5032171;28;20279;-73
2023/04/10 07:18:47;;;;;;;6.73;3.80;;;;;;;;;;5026305;28;20486;-73
2023/04/10 07:21:13;;;;;;;6.47;4.20;;;;;;;;;;5029929;28;20273;-73
2023/04/10 07:23:38;;;;;;;7.43;3.43;;;;;;;;;;5029627;28;20498;-72
2023/04/10 07:26:03;;;;;;;9.10;4.33;;;;;;;;;;5033550;28;20304;-72
2023/04/10 07:28:28;;;;;;;8.07;4.68;;;;;;;;;;5028746;28;20367;-72
2023/04/10 07:30:53;;;;;;;10.70;5.13;;;;;;;;;;5028795;28;20486;-72
2023/04/10 07:33:19;;;;;;;3.87;2.70;;;;;;;;;;5029577;28;20024;-72
2023/04/10 07:35:44;;;;;;;5.65;3.20;;;;;;;;;;5030426;28;20478;-71
2023/04/10 07:38:10;;;;;;;7.25;4.13;;;;;;;;;;5026646;28;20488;-71
2023/04/10 07:40:35;;;;;;;11.68;4.88;;;;;;;;;;5030957;28;20435;-72
2023/04/10 07:43:00;;;;;;;6.20;3.30;;;;;;;;;;5032874;28;20032;-71
2023/04/10 07:45:26;;;;;;;9.53;5.37;;;;;;;;;;5032276;28;20378;-71
2023/04/10 07:47:51;;;;;;;9.68;3.63;;;;;;;;;;5029707;28;20278;-71
2023/04/10 07:50:16;;;;;;;7.30;3.23;;;;;;;;;;5019508;28;20036;-71
2023/04/10 07:52:42;;;;;;;5.68;3.45;;;;;;;;;;5031601;28;20272;-71
2023/04/10 07:55:07;;;;;;;9.33;3.90;;;;;;;;;;5034054;28;20025;-71
2023/04/10 07:57:32;;;;;;;7.82;3.42;;;;;;;;;;5033294;28;20368;-71
2023/04/10 07:59:57;;;;;;;8.77;4.40;;;;;;;;;;5031016;28;20033;-71
2023/04/10 08:02:23;;;;;;;5.32;2.55;;;;;;;;;;5033583;28;20355;-72
2023/04/10 08:04:48;;;;;;;8.43;5.40;;;;;;;;;;5038209;28;20037;-73
2023/04/10 08:07:13;;;;;;;3.83;2.67;;;;;;;;;;5032042;28;20470;-73
2023/04/10 08:09:38;;;;;;;7.30;3.40;;;;;;;;;;5030377;28;20025;-73
2023/04/10 08:12:03;;;;;;;5.05;3.22;;;;;;;;;;5029113;28;20682;-72
2023/04/10 08:14:29;;;;;;;5.60;3.47;;;;;;;;;;5032052;28;20021;-72
2023/04/10 08:16:54;;;;;;;4.78;2.88;;;;;;;;;;5027920;28;20096;-71
2023/04/10 08:19:19;;;;;;;5.88;4.40;;;;;;;;;;5025358;28;20021;-72
2023/04/10 08:21:44;;;;;;;4.93;2.90;;;;;;;;;;5029088;28;20112;-72
2023/04/10 08:24:10;;;;;;;4.20;2.75;;;;;;;;;;5032515;28;20017;-72
2023/04/10 08:26:35;;;;;;;7.80;3.70;;;;;;;;;;5048170;28;20100;-72
2023/04/10 08:29:00;;;;;;;4.27;2.70;;;;;;;;;;5023544;28;20267;-72
2023/04/10 08:31:26;;;;;;;3.93;2.33;;;;;;;;;;5026397;28;20378;-72
2023/04/10 08:33:52;;;;;;;5.05;2.70;;;;;;;;;;5028136;28;20834;-72
2023/04/10 08:36:17;;;;;;;6.22;3.72;;;;;;;;;;5032284;28;20021;-72
2023/04/10 08:38:45;;;;;;;6.87;3.40;;;;;;;;;;5033155;28;20017;-72
2023/04/10 08:41:12;;;;;;;3.88;2.70;;;;;;;;;;5031397;28;20886;-72
2023/04/10 08:43:37;;;;;;;8.50;5.53;;;;;;;;;;5032304;28;20093;-72
2023/04/10 08:46:02;;;;;;;6.43;3.53;;;;;;;;;;5036642;28;20099;-72
2023/04/10 08:48:30;;;;;;;5.50;3.53;;;;;;;;;;5032132;28;20025;-72
2023/04/10 08:50:59;;;;;;;9.25;4.35;;;;;;;;;;5031090;28;20052;-71
2023/04/10 08:53:27;;;;;;;5.82;3.60;;;;;;;;;;5032563;28;20503;-72
2023/04/10 08:55:52;;;;;;;8.23;3.50;;;;;;;;;;5036391;28;20481;-71
2023/04/10 08:58:17;;;;;;;5.63;3.10;;;;;;;;;;5039161;28;20060;-72
2023/04/10 09:00:42;;;;;;;6.67;3.53;;;;;;;;;;5029274;28;20409;-71
2023/04/10 09:03:12;;;;;;;6.37;3.17;;;;;;;;;;5031667;28;20291;-72
2023/04/10 09:05:38;;;;;;;4.13;2.58;;;;;;;;;;5031131;28;20319;-72
2023/04/10 09:08:04;;;;;;;6.30;2.93;;;;;;;;;;5030816;28;20447;-72
2023/04/10 09:10:29;;;;;;;6.20;3.17;;;;;;;;;;5029228;28;20298;-72
2023/04/10 09:12:54;;;;;;;5.10;3.00;;;;;;;;;;5030921;28;20018;-72
2023/04/10 09:15:19;;;;;;;4.57;2.50;;;;;;;;;;5030177;28;20025;-72
2023/04/10 09:17:55;;;;;;;6.47;3.30;;;;;;;;;;5031696;28;20025;-72
2023/04/10 09:20:21;;;;;;;6.55;2.70;;;;;;;;;;5029571;28;20092;-71
2023/04/10 09:22:46;;;;;;;6.45;3.80;;;;;;;;;;5030496;28;20581;-71
2023/04/10 09:25:28;;;;;;;4.50;2.80;;;;;;;;;;5022297;28;20025;-73
2023/04/10 09:27:59;;;;;;;7.28;4.72;;;;;;;;;;5031005;28;20276;-72
2023/04/10 09:30:32;;;;;;;5.57;2.63;;;;;;;;;;5029531;28;20112;-71
2023/04/10 09:32:57;;;;;;;5.05;2.78;;;;;;;;;;5030411;28;20017;-71
2023/04/10 09:35:22;;;;;;;9.50;3.63;;;;;;;;;;5034220;28;20079;-72
2023/04/10 09:37:47;;;;;;;2.20;1.70;;;;;;;;;;5029876;28;20268;-71
2023/04/10 09:40:20;;;;;;;5.90;2.77;;;;;;;;;;5029222;28;20665;-73
2023/04/10 09:42:45;;;;;;;5.93;2.08;;;;;;;;;;5031420;28;20264;-72
2023/04/10 09:45:10;;;;;;;3.87;2.03;;;;;;;;;;5032197;28;20032;-71
2023/04/10 09:47:36;;;;;;;4.30;2.28;;;;;;;;;;5031319;28;20717;-72
2023/04/10 09:50:01;;;;;;;4.63;2.30;;;;;;;;;;5030289;28;20048;-71
2023/04/10 09:52:33;;;;;;;5.43;2.80;;;;;;;;;;5029455;28;20021;-71
2023/04/10 09:54:59;;;;;;;4.47;2.33;;;;;;;;;;5031085;28;20109;-72
2023/04/10 09:57:26;;;;;;;4.20;2.35;;;;;;;;;;5029827;28;20027;-72
2023/04/10 09:59:52;;;;;;;5.10;2.40;;;;;;;;;;5031198;28;20026;-72
2023/04/10 10:02:18;;;;;;;3.65;1.85;;;;;;;;;;5031467;28;20021;-72
2023/04/10 10:04:45;;;;;;;5.68;2.38;;;;;;;;;;5030701;28;20025;-72
2023/04/10 10:07:10;;;;;;;4.00;2.00;;;;;;;;;;5031362;28;20104;-72
2023/04/10 10:09:36;;;;;;;4.03;2.08;;;;;;;;;;5027799;28;20104;-71
2023/04/10 10:12:02;;;;;;;6.43;3.17;;;;;;;;;;5030884;28;20473;-72
2023/04/10 10:14:28;;;;;;;3.75;1.73;;;;;;;;;;5030195;28;20037;-72
2023/04/10 10:16:55;;;;;;;6.63;2.05;;;;;;;;;;5029455;28;20030;-72
2023/04/10 10:19:25;;;;;;;9.75;2.90;;;;;;;;;;5032013;28;20048;-72
2023/04/10 10:21:51;;;;;;;4.63;2.60;;;;;;;;;;5029204;28;20053;-71
2023/04/10 10:24:18;;;;;;;4.80;2.20;;;;;;;;;;5028902;28;20430;-72
2023/04/10 10:26:45;;;;;;;3.88;1.80;;;;;;;;;;5030861;28;20467;-72
2023/04/10 10:29:10;;;;;;;5.22;2.83;;;;;;;;;;5028796;28;20047;-72
2023/04/10 10:31:36;;;;;;;8.45;2.97;;;;;;;;;;5031607;28;20521;-72
2023/04/10 10:34:04;;;;;;;6.95;4.07;;;;;;;;;;5029961;28;20367;-72
2023/04/10 10:36:30;;;;;;;3.08;1.20;;;;;;;;;;5028892;28;20041;-71
2023/04/10 10:39:14;;;;;;;2.58;2.05;;;;;;;;;;5029541;28;20016;-72
2023/04/10 10:41:42;;;;;;;5.90;2.40;;;;;;;;;;5027157;28;20101;-72
2023/04/10 10:44:13;;;;;;;6.15;3.28;;;;;;;;;;5029491;28;20017;-71
2023/04/10 10:46:49;;;;;;;2.75;1.50;;;;;;;;;;5029451;28;20030;-70
2023/04/10 10:49:17;;;;;;;4.88;2.25;;;;;;;;;;5029890;28;20108;-72
2023/04/10 10:51:45;;;;;;;7.60;2.88;;;;;;;;;;5031075;28;20105;-71
2023/04/10 10:54:28;;;;;;;4.32;2.35;;;;;;;;;;5029416;28;20030;-72
2023/04/10 10:56:54;;;;;;;4.63;1.98;;;;;;;;;;5031725;28;20034;-71
2023/04/10 10:59:39;;;;;;;4.53;1.50;;;;;;;;;;5031233;28;20036;-71
2023/04/10 11:02:17;;;;;;;2.80;1.60;;;;;;;;;;5025199;28;20040;-72
2023/04/10 11:04:46;;;;;;;4.30;2.33;;;;;;;;;;5031318;28;20032;-72
2023/04/10 11:07:12;;;;;;;4.47;2.35;;;;;;;;;;5029689;28;20079;-72
2023/04/10 11:09:45;;;;;;;4.43;1.98;;;;;;;;;;5033121;28;20021;-72
2023/04/10 11:12:10;;;;;;;4.40;2.22;;;;;;;;;;5026108;28;20067;-72
2023/04/10 11:14:36;;;;;;;3.15;1.55;;;;;;;;;;5029640;28;20022;-72
2023/04/10 11:17:01;;;;;;;5.28;2.05;;;;;;;;;;5029960;28;20060;-72
2023/04/10 11:19:27;;;;;;;5.03;2.43;;;;;;;;;;5030590;28;20047;-72
2023/04/10 11:21:58;;;;;;;3.47;1.92;;;;;;;;;;5029041;28;20329;-72
2023/04/10 11:24:23;;;;;;;5.28;2.47;;;;;;;;;;5029413;28;20026;-72
2023/04/10 11:26:48;;;;;;;3.00;1.60;;;;;;;;;;5029478;28;20026;-72
2023/04/10 11:29:16;;;;;;;1.90;1.03;;;;;;;;;;5025245;28;20287;-73
2023/04/10 11:31:42;;;;;;;4.13;2.30;;;;;;;;;;5026124;28;20268;-72
2023/04/10 11:34:09;;;;;;;2.33;1.40;;;;;;;;;;5040363;28;20032;-72
2023/04/10 11:36:40;;;;;;;4.07;2.42;;;;;;;;;;5025641;28;20465;-72
2023/04/10 11:39:09;;;;;;;2.72;1.48;;;;;;;;;;5023911;28;20017;-71
2023/04/10 11:41:37;;;;;;;3.35;2.10;;;;;;;;;;5026211;28;20485;-72
2023/04/10 11:44:06;;;;;;;4.53;1.73;;;;;;;;;;5024287;28;20033;-72
2023/04/10 11:46:35;;;;;;;3.35;1.83;;;;;;;;;;5025281;28;20052;-72
2023/04/10 11:49:02;;;;;;;3.85;1.77;;;;;;;;;;5027998;28;20482;-72
2023/04/10 11:51:28;;;;;;;3.45;1.92;;;;;;;;;;5024687;28;20091;-71
2023/04/10 11:54:06;;;;;;;6.85;2.30;;;;;;;;;;5025733;28;20033;-72
2023/04/10 11:56:32;;;;;;;1.35;0.77;;;;;;;;;;5023368;28;20459;-71
2023/04/10 11:58:57;;;;;;;2.78;1.20;;;;;;;;;;5026798;28;20083;-72
2023/04/10 12:01:22;;;;;;;5.75;2.10;;;;;;;;;;5029267;28;20459;-71
2023/04/10 12:03:48;;;;;;;2.43;1.50;;;;;;;;;;5026872;28;20029;-72
2023/04/10 12:06:14;;;;;;;2.22;1.50;;;;;;;;;;5029102;28;20276;-72
2023/04/10 12:08:40;;;;;;;3.35;1.92;;;;;;;;;;5027796;28;20013;-72
2023/04/10 12:11:06;;;;;;;1.30;1.20;;;;;;;;;;5032480;28;20021;-73
2023/04/10 12:13:32;;;;;;;1.98;1.35;;;;;;;;;;5029154;28;20029;-72
2023/04/10 12:15:59;;;;;;;3.90;2.13;;;;;;;;;;5031884;28;20025;-73
2023/04/10 12:18:24;;;;;;;3.42;1.88;;;;;;;;;;5023038;28;20096;-72
2023/04/10 12:20:54;;;;;;;3.92;2.00;;;;;;;;;;5033461;28;20155;-72
2023/04/10 12:23:19;;;;;;;3.38;1.42;;;;;;;;;;5032173;28;20010;-72
2023/04/10 12:25:44;;;;;;;5.20;2.10;;;;;;;;;;5041215;28;20021;-72
2023/04/10 12:28:15;;;;;;;4.97;1.63;;;;;;;;;;5032295;28;20014;-72
2023/04/10 12:30:45;;;;;;;2.88;1.60;;;;;;;;;;5039186;28;20148;-73
2023/04/10 12:33:10;;;;;;;3.92;2.10;;;;;;;;;;5040336;28;20119;-73
2023/04/10 12:35:39;;;;;;;4.13;1.67;;;;;;;;;;5034031;28;20033;-72
2023/04/10 12:38:04;;;;;;;3.25;1.70;;;;;;;;;;5033223;28;20899;-72
2023/04/10 12:40:29;;;;;;;3.40;1.92;;;;;;;;;;5033568;28;20072;-72
2023/04/10 12:42:55;;;;;;;3.95;2.30;;;;;;;;;;5028605;28;20057;-72
2023/04/10 12:45:20;;;;;;;2.28;1.48;;;;;;;;;;5027921;28;20556;-72
2023/04/10 12:47:46;;;;;;;2.47;1.50;;;;;;;;;;5031941;28;20071;-72
2023/04/10 12:50:12;;;;;;;4.60;1.80;;;;;;;;;;5031048;28;20021;-71
2023/04/10 12:52:39;;;;;;;4.75;2.78;;;;;;;;;;5030304;28;20031;-73
2023/04/10 12:55:10;;;;;;;2.53;1.13;;;;;;;;;;5032013;28;20021;-72
2023/04/10 12:57:35;;;;;;;4.00;1.65;;;;;;;;;;5032154;28;20442;-72
2023/04/10 13:00:02;;;;;;;4.00;2.38;;;;;;;;;;5033028;28;20041;-71
2023/04/10 13:02:27;;;;;;;2.33;1.40;;;;;;;;;;5036072;28;20045;-72
2023/04/10 13:04:53;;;;;;;1.83;1.13;;;;;;;;;;5036203;28;20060;-72
2023/04/10 13:07:18;;;;;;;5.20;1.65;;;;;;;;;;5032843;28;20494;-72
2023/04/10 13:09:43;;;;;;;3.63;2.10;;;;;;;;;;5036599;28;20030;-72
2023/04/10 13:12:08;;;;;;;5.10;2.50;;;;;;;;;;5032846;28;20048;-72
2023/04/10 13:14:33;;;;;;;3.67;1.60;;;;;;;;;;5031772;28;20037;-72
2023/04/10 13:16:59;;;;;;;2.93;2.00;;;;;;;;;;5035531;28;20385;-73
2023/04/10 13:19:24;;;;;;;2.88;1.63;;;;;;;;;;5032764;28;20075;-73
2023/04/10 13:21:50;;;;;;;3.53;1.15;;;;;;;;;;5033189;28;20014;-72
2023/04/10 13:24:15;;;;;;;3.08;1.85;;;;;;;;;;5041400;28;20537;-73
2023/04/10 13:26:41;;;;;;;2.33;1.20;;;;;;;;;;5025543;28;20026;-73
2023/04/10 13:29:06;;;;;;;1.33;1.00;;;;;;;;;;5031591;28;20032;-72
2023/04/10 13:31:31;;;;;;;1.97;1.30;;;;;;;;;;5031698;28;20112;-72
2023/04/10 13:33:56;;;;;;;4.77;0.97;;;;;;;;;;5034719;28;20287;-72
2023/04/10 13:36:22;;;;;;;2.28;1.42;;;;;;;;;;5032335;28;20632;-73
2023/04/10 13:38:47;;;;;;;2.78;1.27;;;;;;;;;;5032673;28;20100;-73
2023/04/10 13:41:12;;;;;;;3.07;1.63;;;;;;;;;;5032589;28;20092;-73
2023/04/10 13:43:37;;;;;;;2.00;1.37;;;;;;;;;;5040769;28;20470;-73
2023/04/10 13:46:02;;;;;;;2.33;1.53;;;;;;;;;;5032396;28;20104;-73
2023/04/10 13:48:28;;;;;;;3.58;2.03;;;;;;;;;;5032107;28;20010;-73
2023/04/10 13:50:53;;;;;;;1.87;1.20;;;;;;;;;;5035029;28;20033;-72
2023/04/10 13:53:18;;;;;;;4.17;2.20;;;;;;;;;;5032343;28;20298;-72
2023/04/10 13:55:46;;;;;;;3.07;1.70;;;;;;;;;;5031380;28;20101;-73
2023/04/10 13:58:12;;;;;;;4.00;2.10;;;;;;;;;;5032411;28;20260;-72
2023/04/10 14:00:37;;;;;;;2.75;1.80;;;;;;;;;;5036169;28;20029;-73
2023/04/10 14:03:03;;;;;;;2.20;1.40;;;;;;;;;;5039520;28;20021;-73
2023/04/10 14:05:28;;;;;;;3.05;1.65;;;;;;;;;;5036840;28;20439;-72
2023/04/10 14:07:55;;;;;;;1.70;1.20;;;;;;;;;;5034711;28;20048;-72
2023/04/10 14:10:21;;;;;;;3.85;1.83;;;;;;;;;;5039911;28;20345;-72
2023/04/10 14:12:46;;;;;;;3.42;1.70;;;;;;;;;;5031937;28;20101;-72
2023/04/10 14:15:11;;;;;;;2.07;1.40;;;;;;;;;;5031615;28;20048;-72
2023/04/10 14:17:36;;;;;;;2.07;0.93;;;;;;;;;;5033356;28;20089;-71
2023/04/10 14:20:01;;;;;;;3.53;1.38;;;;;;;;;;5037400;28;20024;-72
2023/04/10 14:22:29;;;;;;;3.75;1.65;;;;;;;;;;5031589;28;20092;-72
2023/04/10 14:24:54;;;;;;;4.32;1.83;;;;;;;;;;5030933;28;20533;-72
2023/04/10 14:27:19;;;;;;;1.83;1.07;;;;;;;;;;5031285;28;20053;-72
2023/04/10 14:29:44;;;;;;;1.47;0.77;;;;;;;;;;5035481;28;20017;-72
2023/04/10 14:32:09;;;;;;;2.80;1.37;;;;;;;;;;5030977;28;20763;-72